Time;durP1;ratioP1;P1;durP2;ratioP2;P2;SDS_P1;SDS_P2;PMS_P1;PMS_P2;Temp;Humidity;BMP_temperature;BMP_pressure;BME280_temperature;BME280_humidity;BME280_pressure;Samples;Min_cycle;Max_cycle;Signal;HPM_P1;HPM_P2
2021/10/22 00:00:14;;;;;;;13.70;11.93;;;;;;;11.48;100.00;100558.78;1699967;81;21791;-83
2021/10/22 00:02:41;;;;;;;15.28;12.70;;;;;;;11.49;100.00;100553.44;1730942;82;21029;-83
2021/10/22 00:05:09;;;;;;;19.48;12.80;;;;;;;11.51;100.00;100553.30;1699928;82;21039;-83
2021/10/22 00:07:41;;;;;;;18.77;12.75;;;;;;;11.52;100.00;100548.44;1700642;82;21051;-84
2021/10/22 00:10:10;;;;;;;16.97;12.90;;;;;;;11.54;100.00;100536.61;1731090;81;21120;-81
2021/10/22 00:12:39;;;;;;;15.38;12.55;;;;;;;11.55;100.00;100527.34;1702325;82;21650;-84
2021/10/22 00:15:08;;;;;;;13.75;12.37;;;;;;;11.56;100.00;100515.97;1729820;82;21531;-84
2021/10/22 00:17:38;;;;;;;13.00;11.65;;;;;;;11.55;100.00;100518.22;1727536;82;21006;-84
2021/10/22 00:20:08;;;;;;;17.40;12.82;;;;;;;11.55;100.00;100509.09;1731422;82;21061;-84
2021/10/22 00:22:37;;;;;;;14.55;13.03;;;;;;;11.55;100.00;100512.16;1692982;82;21602;-85
2021/10/22 00:25:05;;;;;;;14.65;13.15;;;;;;;11.56;100.00;100498.17;1697190;82;21874;-84
2021/10/22 00:27:32;;;;;;;19.23;13.53;;;;;;;11.57;100.00;100507.20;1700933;82;21026;-84
2021/10/22 00:30:00;;;;;;;14.53;13.03;;;;;;;11.59;100.00;100505.76;1731191;82;21032;-84
2021/10/22 00:32:27;;;;;;;15.00;12.82;;;;;;;11.60;100.00;100503.50;1732558;81;21646;-85
2021/10/22 00:34:54;;;;;;;15.85;13.80;;;;;;;11.61;100.00;100495.55;1736755;81;21552;-84
2021/10/22 00:37:21;;;;;;;14.98;13.22;;;;;;;11.63;100.00;100487.59;1737077;81;21140;-84
2021/10/22 00:39:49;;;;;;;19.25;13.32;;;;;;;11.63;100.00;100500.17;1736984;81;21319;-84
2021/10/22 00:42:18;;;;;;;14.03;12.43;;;;;;;11.62;100.00;100501.12;1708865;82;21018;-84
2021/10/22 00:44:48;;;;;;;16.97;12.53;;;;;;;11.63;100.00;100501.93;1691861;81;21129;-85
2021/10/22 00:47:15;;;;;;;15.63;12.75;;;;;;;11.64;100.00;100500.52;1745446;81;21042;-85
2021/10/22 00:49:44;;;;;;;18.45;12.50;;;;;;;11.64;100.00;100505.74;1743130;81;21117;-84
2021/10/22 00:52:14;;;;;;;19.37;13.28;;;;;;;11.67;100.00;100500.75;1745733;81;20998;-84
2021/10/22 00:54:42;;;;;;;15.45;12.53;;;;;;;11.69;100.00;100497.55;1745037;81;21524;-84
2021/10/22 00:57:12;;;;;;;14.13;12.53;;;;;;;11.71;100.00;100503.44;1716074;82;21007;-84
2021/10/22 00:59:40;;;;;;;16.65;13.70;;;;;;;11.74;100.00;100499.75;1716023;81;21460;-84
2021/10/22 01:02:09;;;;;;;15.35;13.08;;;;;;;11.75;100.00;100509.23;1745926;81;21570;-84
2021/10/22 01:04:38;;;;;;;15.13;12.88;;;;;;;11.75;100.00;100503.55;1717989;82;21061;-85
2021/10/22 01:07:08;;;;;;;15.28;12.73;;;;;;;11.79;100.00;100502.83;1687242;83;21094;-84
2021/10/22 01:09:36;;;;;;;19.30;12.60;;;;;;;11.80;100.00;100496.66;1714879;82;21093;-84
2021/10/22 01:12:04;;;;;;;14.47;12.78;;;;;;;11.80;100.00;100500.57;1715502;83;21627;-84
2021/10/22 01:14:32;;;;;;;17.20;12.98;;;;;;;11.82;100.00;100497.34;1715731;82;22009;-83
2021/10/22 01:16:59;;;;;;;14.28;12.53;;;;;;;11.84;100.00;100499.35;1663250;83;21049;-83
2021/10/22 01:19:26;;;;;;;16.27;12.75;;;;;;;11.86;100.00;100496.64;1716055;82;21058;-83
2021/10/22 01:21:55;;;;;;;15.38;13.50;;;;;;;11.86;100.00;100506.58;1711442;82;21058;-84
2021/10/22 01:24:22;;;;;;;16.10;13.03;;;;;;;11.88;100.00;100505.98;1745577;81;22747;-84
2021/10/22 01:26:49;;;;;;;15.00;13.45;;;;;;;11.89;100.00;100503.73;1745563;81;21930;-84
2021/10/22 01:29:17;;;;;;;19.32;14.30;;;;;;;11.89;100.00;100507.64;1715805;82;21042;-84
2021/10/22 01:31:44;;;;;;;16.57;13.45;;;;;;;11.90;100.00;100501.45;1745314;81;21039;-83
2021/10/22 01:34:12;;;;;;;17.70;14.00;;;;;;;11.91;100.00;100507.02;1715688;82;21038;-84
2021/10/22 01:36:40;;;;;;;16.62;13.88;;;;;;;11.91;100.00;100506.20;1745359;81;21558;-83
2021/10/22 01:39:08;;;;;;;16.77;13.32;;;;;;;11.90;100.00;100511.87;1745141;81;21857;-84
2021/10/22 01:41:35;;;;;;;18.37;14.30;;;;;;;11.91;100.00;100508.81;1715868;82;21023;-84
2021/10/22 01:44:06;;;;;;;16.55;13.95;;;;;;;11.94;100.00;100506.78;1737823;82;21481;-84
2021/10/22 01:46:33;;;;;;;15.63;13.18;;;;;;;11.96;100.00;100506.64;1737451;82;21077;-82
2021/10/22 01:49:01;;;;;;;18.32;14.25;;;;;;;11.95;100.00;100504.52;1737465;81;21078;-84
2021/10/22 01:51:28;;;;;;;15.45;13.85;;;;;;;11.96;100.00;100514.01;1737736;81;21793;-86
2021/10/22 01:53:55;;;;;;;17.00;15.15;;;;;;;11.97;100.00;100509.64;1737389;81;21050;-84
2021/10/22 01:56:22;;;;;;;16.02;14.40;;;;;;;11.98;100.00;100509.98;1737799;81;21043;-84
2021/10/22 01:58:49;;;;;;;17.55;14.70;;;;;;;11.97;100.00;100498.73;1737503;81;21181;-85
2021/10/22 02:01:16;;;;;;;15.70;14.13;;;;;;;11.99;100.00;100518.17;1737681;81;21684;-85
2021/10/22 02:03:43;;;;;;;17.07;14.47;;;;;;;11.99;100.00;100509.85;1737187;81;21959;-84
2021/10/22 02:06:10;;;;;;;15.03;13.43;;;;;;;12.04;100.00;100503.44;1737571;81;21039;-84
2021/10/22 02:08:37;;;;;;;16.32;13.60;;;;;;;12.03;100.00;100505.70;1737303;81;21026;-85
2021/10/22 02:11:04;;;;;;;18.48;14.30;;;;;;;12.03;100.00;100513.03;1737711;81;21089;-85
2021/10/22 02:13:32;;;;;;;15.48;13.78;;;;;;;12.06;100.00;100517.20;1737314;82;21054;-84
2021/10/22 02:15:59;;;;;;;18.10;13.93;;;;;;;12.06;100.00;100516.70;1737711;81;21180;-85
2021/10/22 02:18:26;;;;;;;16.48;14.65;;;;;;;12.08;100.00;100523.09;1735335;81;21014;-85
2021/10/22 02:20:53;;;;;;;16.05;14.35;;;;;;;12.10;100.00;100529.02;1737404;81;21543;-85
2021/10/22 02:23:20;;;;;;;15.65;13.80;;;;;;;12.12;100.00;100517.98;1737469;82;21074;-85
2021/10/22 02:25:47;;;;;;;15.60;13.72;;;;;;;12.14;100.00;100514.75;1737540;82;21567;-85
2021/10/22 02:28:15;;;;;;;14.75;13.22;;;;;;;12.14;100.00;100517.36;1737427;81;21140;-85
2021/10/22 02:30:42;;;;;;;14.58;13.05;;;;;;;12.15;100.00;100508.11;1737316;81;21059;-84
2021/10/22 02:33:11;;;;;;;15.50;13.58;;;;;;;12.16;100.00;100495.88;1735292;81;21113;-83
2021/10/22 02:35:39;;;;;;;16.07;13.75;;;;;;;12.15;100.00;100498.13;1737605;81;21042;-84
2021/10/22 02:38:06;;;;;;;16.57;12.98;;;;;;;12.16;100.00;100507.63;1737341;81;21047;-83
2021/10/22 02:40:34;;;;;;;14.73;13.05;;;;;;;12.18;100.00;100500.50;1737076;81;21090;-83
2021/10/22 02:43:01;;;;;;;15.30;13.70;;;;;;;12.20;100.00;100505.58;1737403;81;21519;-84
2021/10/22 02:45:28;;;;;;;16.02;13.13;;;;;;;12.20;100.00;100502.52;1730280;81;21008;-83
2021/10/22 02:47:56;;;;;;;15.53;12.90;;;;;;;12.20;100.00;100502.52;1737276;81;21014;-84
2021/10/22 02:50:23;;;;;;;15.30;12.75;;;;;;;12.22;100.00;100496.66;1700223;82;21543;-83
2021/10/22 02:52:50;;;;;;;18.00;12.68;;;;;;;12.22;100.00;100495.36;1724598;81;21213;-93
2021/10/22 02:55:17;;;;;;;54.50;15.98;;;;;;;12.22;100.00;100512.33;1719495;81;21113;-89
2021/10/22 02:57:45;;;;;;;16.30;13.55;;;;;;;12.34;100.00;100487.45;1726124;81;21026;-90
2021/10/22 03:00:13;;;;;;;18.60;14.28;;;;;;;12.52;100.00;100477.22;1708198;82;21527;-83
2021/10/22 03:02:40;;;;;;;18.50;13.50;;;;;;;12.63;100.00;100469.30;1697171;82;21058;-85
2021/10/22 03:05:11;;;;;;;15.95;13.25;;;;;;;12.70;100.00;100474.34;1707837;81;21143;-85
2021/10/22 03:07:39;;;;;;;16.52;13.22;;;;;;;12.79;100.00;100467.48;1760737;79;21530;-84
2021/10/22 03:10:07;;;;;;;17.48;13.72;;;;;;;12.85;100.00;100458.29;1779683;79;21069;-85
2021/10/22 03:12:37;;;;;;;16.93;14.13;;;;;;;12.91;100.00;100462.51;1776186;79;21050;-85
2021/10/22 03:15:06;;;;;;;18.12;13.45;;;;;;;12.98;100.00;100453.63;1743631;80;22134;-85
2021/10/22 03:17:33;;;;;;;16.82;14.10;;;;;;;13.04;100.00;100457.03;1777038;79;21863;-85
2021/10/22 03:20:03;;;;;;;19.92;13.93;;;;;;;13.06;100.00;100460.81;1783142;80;21025;-86
2021/10/22 03:22:31;;;;;;;20.55;14.07;;;;;;;13.08;100.00;100461.51;1778064;78;20974;-85
2021/10/22 03:24:58;;;;;;;20.27;14.55;;;;;;;13.12;100.00;100469.91;1761183;80;21061;-86
2021/10/22 03:27:27;;;;;;;17.75;14.95;;;;;;;13.16;100.00;100477.34;1780661;78;21104;-85
2021/10/22 03:29:54;;;;;;;18.55;15.90;;;;;;;13.21;100.00;100469.91;1760990;80;21043;-86
2021/10/22 03:32:21;;;;;;;18.57;14.65;;;;;;;13.23;100.00;100474.53;1755907;79;21057;-84
2021/10/22 03:34:50;;;;;;;25.37;14.95;;;;;;;13.30;100.00;100471.36;1782901;78;21089;-85
2021/10/22 03:37:17;;;;;;;18.75;14.58;;;;;;;13.37;100.00;100475.92;1760975;80;21030;-86
2021/10/22 03:39:46;;;;;;;29.18;14.33;;;;;;;13.36;100.00;100474.27;1760786;80;21535;-84
2021/10/22 03:42:13;;;;;;;51.20;15.93;;;;;;;13.33;100.00;100477.64;1760921;79;21085;-86
2021/10/22 03:44:40;;;;;;;22.58;14.00;;;;;;;13.28;100.00;100477.20;1758434;79;21501;-85
2021/10/22 03:47:07;;;;;;;20.17;14.25;;;;;;;13.27;100.00;100486.84;1780603;79;21077;-86
2021/10/22 03:49:34;;;;;;;19.10;14.35;;;;;;;13.21;100.00;100488.20;1777264;79;21018;-84
2021/10/22 03:52:01;;;;;;;22.75;13.60;;;;;;;13.16;100.00;100474.73;1780392;79;21043;-84
2021/10/22 03:54:28;;;;;;;21.75;14.55;;;;;;;13.12;100.00;100483.79;1780185;79;22057;-84
2021/10/22 03:56:57;;;;;;;30.95;14.93;;;;;;;13.08;100.00;100487.65;1780269;79;21050;-84
2021/10/22 03:59:24;;;;;;;27.50;15.20;;;;;;;13.05;100.00;100492.67;1758051;80;21460;-87
2021/10/22 04:01:51;;;;;;;23.07;14.80;;;;;;;13.04;100.00;100492.78;1779255;79;21045;-85
2021/10/22 04:04:18;;;;;;;18.60;14.10;;;;;;;13.03;100.00;100497.20;1747565;79;21124;-85
2021/10/22 04:06:46;;;;;;;20.85;14.68;;;;;;;12.99;100.00;100497.59;1771494;79;21155;-85
2021/10/22 04:09:15;;;;;;;19.42;14.13;;;;;;;13.00;100.00;100505.79;1728365;80;21038;-85
2021/10/22 04:11:43;;;;;;;23.38;14.33;;;;;;;13.00;100.00;100511.83;1749460;82;20987;-85
2021/10/22 04:14:11;;;;;;;22.60;15.55;;;;;;;13.03;100.00;100521.19;1749111;81;21062;-85
2021/10/22 04:16:38;;;;;;;23.65;14.50;;;;;;;13.00;100.00;100526.20;1752844;80;21559;-85
2021/10/22 04:19:05;;;;;;;18.55;14.38;;;;;;;12.96;100.00;100536.59;1780404;79;21924;-85
2021/10/22 04:21:32;;;;;;;22.10;14.47;;;;;;;12.96;100.00;100537.90;1780252;79;21010;-86
2021/10/22 04:24:00;;;;;;;30.15;14.15;;;;;;;12.95;100.00;100546.70;1756531;80;21054;-85
2021/10/22 04:26:27;;;;;;;20.48;14.18;;;;;;;12.94;100.00;100545.85;1778423;79;21105;-85
2021/10/22 04:28:54;;;;;;;21.42;14.47;;;;;;;12.99;100.00;100538.92;1779418;79;21042;-83
2021/10/22 04:31:21;;;;;;;18.75;15.20;;;;;;;13.00;100.00;100537.16;1753202;79;21069;-85
2021/10/22 04:33:48;;;;;;;18.32;15.08;;;;;;;12.96;100.00;100537.90;1753185;80;21105;-85
2021/10/22 04:36:17;;;;;;;16.80;15.10;;;;;;;12.92;100.00;100547.80;1752771;79;21002;-85
2021/10/22 04:41:31;;;;;;;18.82;15.18;;;;;;;12.84;100.00;100545.02;1773505;79;21030;-84
2021/10/22 04:43:58;;;;;;;20.00;14.43;;;;;;;12.80;100.00;100546.71;1776468;79;21120;-85
2021/10/22 04:46:25;;;;;;;18.27;14.83;;;;;;;12.79;100.00;100551.09;1767056;79;21030;-85
2021/10/22 04:48:52;;;;;;;22.50;16.00;;;;;;;12.78;100.00;100553.35;1751804;79;21095;-85
2021/10/22 04:51:19;;;;;;;17.95;15.88;;;;;;;12.77;100.00;100543.89;1772138;79;21544;-86
2021/10/22 04:53:46;;;;;;;17.57;15.65;;;;;;;12.74;100.00;100547.56;1772588;79;21042;-83
2021/10/22 04:56:13;;;;;;;21.00;16.07;;;;;;;12.71;100.00;100545.69;1772118;79;21067;-85
2021/10/22 04:58:40;;;;;;;21.42;16.40;;;;;;;12.71;100.00;100552.22;1772119;79;21043;-85
2021/10/22 05:01:07;;;;;;;20.65;15.70;;;;;;;12.70;100.00;100566.27;1772142;79;21046;-86
2021/10/22 05:03:34;;;;;;;20.50;16.17;;;;;;;12.69;100.00;100562.81;1771898;81;21133;-86
2021/10/22 05:06:02;;;;;;;21.07;16.70;;;;;;;12.70;100.00;100566.27;1772131;79;21299;-84
2021/10/22 05:08:29;;;;;;;20.65;17.00;;;;;;;12.70;100.00;100563.17;1772239;79;21117;-85
2021/10/22 05:10:57;;;;;;;20.68;15.90;;;;;;;12.68;100.00;100570.80;1772067;79;21082;-86
2021/10/22 05:13:24;;;;;;;26.12;17.80;;;;;;;12.67;100.00;100571.75;1772190;79;22064;-82
2021/10/22 05:15:52;;;;;;;20.97;17.77;;;;;;;12.66;100.00;100573.52;1772189;79;21966;-83
2021/10/22 05:18:21;;;;;;;25.48;17.75;;;;;;;12.64;100.00;100567.61;1772278;79;21019;-87
2021/10/22 05:20:48;;;;;;;26.57;18.73;;;;;;;12.64;100.00;100558.47;1772251;79;21139;-86
2021/10/22 05:23:20;;;;;;;24.90;18.37;;;;;;;12.63;100.00;100554.20;1771517;79;21018;-86
2021/10/22 05:25:48;;;;;;;25.27;17.85;;;;;;;12.61;100.00;100562.17;1767657;79;21035;-86
2021/10/22 05:28:15;;;;;;;22.95;19.05;;;;;;;12.59;100.00;100566.69;1752365;81;21492;-86
2021/10/22 05:30:43;;;;;;;24.80;18.23;;;;;;;12.60;100.00;100574.04;1768448;79;22201;-85
2021/10/22 05:33:12;;;;;;;24.82;19.92;;;;;;;12.60;100.00;100570.13;1772134;79;21125;-85
2021/10/22 05:35:40;;;;;;;26.37;19.10;;;;;;;12.60;100.00;100575.34;1772197;79;21575;-85
2021/10/22 05:38:07;;;;;;;26.12;19.23;;;;;;;12.59;100.00;100566.69;1772325;79;21540;-85
2021/10/22 05:40:35;;;;;;;26.33;19.27;;;;;;;12.58;100.00;100554.59;1772078;79;21000;-85
2021/10/22 05:43:04;;;;;;;20.72;17.60;;;;;;;12.59;100.00;100564.08;1772093;81;21619;-85
2021/10/22 05:45:31;;;;;;;22.32;18.77;;;;;;;12.60;100.00;100564.44;1788076;78;21136;-85
2021/10/22 05:47:58;;;;;;;24.57;18.23;;;;;;;12.62;100.00;100566.41;1788519;78;21010;-85
2021/10/22 05:50:25;;;;;;;22.35;17.60;;;;;;;12.65;100.00;100561.89;1788595;78;21008;-82
2021/10/22 05:52:52;;;;;;;26.95;17.62;;;;;;;12.68;100.00;100562.46;1788780;78;21034;-82
2021/10/22 05:55:21;;;;;;;22.05;17.27;;;;;;;12.72;100.00;100569.56;1789332;78;20951;-83
2021/10/22 05:57:48;;;;;;;27.17;17.73;;;;;;;12.74;100.00;100566.34;1788887;79;21133;-83
2021/10/22 06:00:15;;;;;;;22.98;16.48;;;;;;;12.77;100.00;100555.16;1789012;78;21465;-83
2021/10/22 06:02:43;;;;;;;22.50;15.35;;;;;;;12.80;100.00;100535.77;1788927;78;21014;-83
2021/10/22 06:05:11;;;;;;;21.70;16.12;;;;;;;12.83;100.00;100530.75;1788837;78;21037;-86
2021/10/22 06:07:38;;;;;;;19.30;15.53;;;;;;;12.85;100.00;100533.61;1768287;80;21049;-86
2021/10/22 06:10:08;;;;;;;17.73;15.28;;;;;;;12.87;100.00;100538.20;1788192;78;21697;-85
2021/10/22 06:12:36;;;;;;;22.65;15.70;;;;;;;12.91;100.00;100554.44;1775353;79;21292;-86
2021/10/22 06:15:06;;;;;;;20.57;15.13;;;;;;;12.93;100.00;100570.36;1788413;78;21105;-86
2021/10/22 06:17:33;;;;;;;19.05;16.17;;;;;;;13.00;100.00;100589.42;1788477;80;21042;-85
2021/10/22 06:20:08;;;;;;;18.70;14.90;;;;;;;13.04;100.00;100596.03;1785850;80;21512;-86
2021/10/22 06:25:03;;;;;;;20.85;15.75;;;;;;;13.15;100.00;100589.41;1788571;78;21035;-85
2021/10/22 06:27:31;;;;;;;19.57;16.35;;;;;;;13.19;100.00;100599.94;1779614;78;21001;-86
2021/10/22 06:29:59;;;;;;;17.77;14.53;;;;;;;13.21;100.00;100618.94;1777791;79;21000;-86
2021/10/22 06:32:26;;;;;;;18.00;14.95;;;;;;;13.24;100.00;100634.84;1787944;78;21592;-86
2021/10/22 06:34:54;;;;;;;18.85;14.50;;;;;;;13.28;100.00;100639.32;1787023;80;21128;-87
2021/10/22 06:37:21;;;;;;;18.45;14.40;;;;;;;13.26;100.00;100636.36;1788405;78;21025;-86
2021/10/22 06:39:48;;;;;;;15.70;13.72;;;;;;;13.22;100.00;100639.39;1788634;78;21562;-85
2021/10/22 06:42:15;;;;;;;15.55;13.83;;;;;;;13.22;100.00;100635.47;1788155;78;20973;-86
2021/10/22 06:44:42;;;;;;;20.80;15.08;;;;;;;13.22;100.00;100642.02;1787106;78;21041;-85
2021/10/22 06:47:10;;;;;;;17.85;14.65;;;;;;;13.22;100.00;100642.83;1726869;80;21363;-86
2021/10/22 06:49:38;;;;;;;20.20;15.03;;;;;;;13.28;100.00;100651.09;1786027;78;21060;-85
2021/10/22 06:52:06;;;;;;;22.07;14.15;;;;;;;13.31;100.00;100654.76;1786674;79;21435;-86
2021/10/22 06:54:33;;;;;;;20.15;14.60;;;;;;;13.37;100.00;100659.45;1786263;79;21107;-85
2021/10/22 06:57:00;;;;;;;17.95;14.15;;;;;;;13.42;100.00;100642.91;1786850;79;21009;-85
2021/10/22 06:59:28;;;;;;;16.82;14.53;;;;;;;13.50;100.00;100643.06;1786618;79;21120;-86
2021/10/22 07:01:55;;;;;;;19.27;14.63;;;;;;;13.59;100.00;100649.77;1786664;79;21507;-86
2021/10/22 07:04:22;;;;;;;22.52;14.60;;;;;;;13.64;100.00;100656.75;1753985;80;21017;-92
2021/10/22 07:09:35;;;;;;;20.65;14.80;;;;;;;13.77;100.00;100653.88;1786619;78;20955;-83
2021/10/22 07:12:03;;;;;;;18.67;15.18;;;;;;;13.83;100.00;100654.64;1786658;78;21155;-86
2021/10/22 07:14:34;;;;;;;21.25;15.93;;;;;;;13.88;100.00;100660.29;1784529;80;21603;-87
2021/10/22 07:17:04;;;;;;;21.80;16.17;;;;;;;13.94;100.00;100658.92;1783595;80;21007;-87
2021/10/22 07:19:36;;;;;;;21.10;16.00;;;;;;;13.98;100.00;100652.47;1785235;79;21040;-86
2021/10/22 07:22:13;;;;;;;23.55;16.42;;;;;;;14.02;100.00;100650.72;1786081;78;22631;-86
2021/10/22 07:24:32;;;;;;;23.85;16.10;;;;;;;14.06;100.00;100644.73;1783085;78;21118;-86
2021/10/22 07:27:00;;;;;;;19.73;14.83;;;;;;;14.12;100.00;100645.51;1773326;79;21022;-87
2021/10/22 07:29:28;;;;;;;19.50;15.63;;;;;;;14.20;100.00;100641.72;1723473;78;21003;-87
2021/10/22 07:31:55;;;;;;;30.27;16.15;;;;;;;14.27;100.00;100633.30;1785274;79;21014;-86
2021/10/22 07:34:23;;;;;;;32.95;17.15;;;;;;;14.30;100.00;100633.84;1786082;78;21421;-87
2021/10/22 07:36:51;;;;;;;32.60;16.07;;;;;;;14.33;100.00;100629.66;1786576;78;21822;-87
2021/10/22 07:39:21;;;;;;;26.65;15.85;;;;;;;14.40;100.00;100631.70;1786313;78;21010;-87
2021/10/22 07:41:49;;;;;;;18.80;14.80;;;;;;;14.46;100.00;100630.64;1786451;78;21968;-86
2021/10/22 07:44:16;;;;;;;20.77;16.82;;;;;;;14.51;100.00;100629.76;1782948;78;21006;-84
2021/10/22 07:46:45;;;;;;;20.08;15.60;;;;;;;14.55;100.00;100627.68;1749952;79;21045;-84
2021/10/22 07:49:12;;;;;;;27.07;16.32;;;;;;;14.60;100.00;100627.26;1766021;79;21134;-85
2021/10/22 07:51:39;;;;;;;28.05;15.30;;;;;;;14.67;100.00;100634.92;1772544;79;21058;-85
2021/10/22 07:54:08;;;;;;;17.37;14.83;;;;;;;14.75;100.00;100636.36;1770091;79;21303;-85
2021/10/22 07:56:35;;;;;;;22.95;16.32;;;;;;;14.80;100.00;100643.30;1768531;79;21175;-85
2021/10/22 07:59:04;;;;;;;21.07;14.68;;;;;;;14.84;100.00;100650.39;1755668;79;21638;-84
2021/10/22 08:01:32;;;;;;;21.15;15.05;;;;;;;14.88;100.00;100658.80;1741276;81;21162;-84
2021/10/22 08:03:59;;;;;;;18.67;14.63;;;;;;;14.91;100.00;100655.90;1746077;79;21062;-83
2021/10/22 08:06:30;;;;;;;17.00;14.05;;;;;;;14.92;100.00;100647.88;1772273;79;20998;-84
2021/10/22 08:08:57;;;;;;;23.70;15.68;;;;;;;14.96;100.00;100644.48;1770368;79;21057;-84
2021/10/22 08:11:24;;;;;;;25.05;16.90;;;;;;;15.03;100.00;100645.56;1763752;80;21560;-84
2021/10/22 08:13:53;;;;;;;21.07;16.67;;;;;;;15.11;100.00;100648.30;1765334;79;21548;-85
2021/10/22 08:16:22;;;;;;;22.80;18.65;;;;;;;15.18;100.00;100651.17;1772113;79;21042;-84
2021/10/22 08:18:49;;;;;;;20.82;16.48;;;;;;;15.24;100.00;100656.34;1771940;79;21070;-87
2021/10/22 08:23:45;;;;;;;23.20;16.12;;;;;;;15.36;100.00;100655.66;1759473;81;21042;-84
2021/10/22 08:26:15;;;;;;;23.32;19.02;;;;;;;15.43;100.00;100665.41;1772225;81;21835;-87
2021/10/22 08:28:44;;;;;;;20.97;16.93;;;;;;;15.48;100.00;100667.59;1772358;79;22022;-87
2021/10/22 08:31:11;;;;;;;21.30;16.62;;;;;;;15.52;100.00;100661.56;1772006;79;21066;-89
2021/10/22 08:33:38;;;;;;;23.98;17.57;;;;;;;15.61;100.00;100662.84;1733409;81;21042;-88
2021/10/22 08:36:07;;;;;;;23.73;17.55;;;;;;;15.69;100.00;100666.03;1757326;80;20999;-88
2021/10/22 08:38:35;;;;;;;26.35;18.20;;;;;;;15.76;100.00;100667.09;1769528;79;21931;-87
2021/10/22 08:41:07;;;;;;;22.07;18.67;;;;;;;15.83;100.00;100662.55;1771802;79;21930;-88
2021/10/22 08:43:36;;;;;;;21.73;18.35;;;;;;;15.92;100.00;100666.95;1770054;79;21037;-84
2021/10/22 08:46:06;;;;;;;28.10;19.25;;;;;;;15.97;100.00;100672.59;1773611;79;21544;-84
2021/10/22 08:48:33;;;;;;;24.85;20.23;;;;;;;16.00;100.00;100676.22;1771359;79;21061;-84
2021/10/22 08:51:00;;;;;;;26.50;20.85;;;;;;;16.00;100.00;100680.16;1769565;79;22002;-84
2021/10/22 08:53:29;;;;;;;25.50;19.90;;;;;;;16.04;100.00;100678.05;1768852;79;21010;-84
2021/10/22 08:55:58;;;;;;;26.57;20.57;;;;;;;16.09;100.00;100681.89;1757092;80;21039;-83
2021/10/22 08:58:26;;;;;;;27.07;20.00;;;;;;;16.19;100.00;100680.49;1772297;79;21002;-84
2021/10/22 09:00:55;;;;;;;30.68;21.82;;;;;;;16.27;100.00;100675.81;1772129;79;21631;-84
2021/10/22 09:03:23;;;;;;;28.62;21.65;;;;;;;16.36;100.00;100669.66;1772441;79;21956;-85
2021/10/22 09:06:02;;;;;;;33.50;21.82;;;;;;;16.44;100.00;100663.63;1772189;81;20995;-87
2021/10/22 09:08:33;;;;;;;24.75;20.90;;;;;;;16.52;100.00;100659.73;1759848;81;21034;-87
2021/10/22 09:11:01;;;;;;;;;;;;;;;16.58;100.00;100655.67;1774907;79;21007;-87
2021/10/22 09:13:34;;;;;;;30.48;21.93;;;;;;;16.64;100.00;100651.61;1772282;79;20127;-87
2021/10/22 09:16:24;;;;;;;26.33;20.68;;;;;;;16.72;100.00;100647.72;1734900;81;21138;-87
2021/10/22 09:18:55;;;;;;;27.62;22.10;;;;;;;16.83;100.00;100646.63;1772540;79;21511;-87
2021/10/22 09:21:29;;;;;;;30.05;22.90;;;;;;;16.93;100.00;100647.86;1772105;79;20992;-87
2021/10/22 09:24:18;;;;;;;26.70;23.07;;;;;;;17.01;100.00;100647.91;1768775;79;21046;-86
2021/10/22 09:26:55;;;;;;;28.38;23.22;;;;;;;17.06;100.00;100655.33;1741686;79;20971;-86
2021/10/22 09:29:27;;;;;;;33.18;22.93;;;;;;;17.09;100.00;100648.45;1753463;79;21187;-86
2021/10/22 09:31:57;;;;;;;28.27;23.12;;;;;;;17.09;100.00;100651.89;1748620;79;21448;-86
2021/10/22 09:34:36;;;;;;;28.15;22.87;;;;;;;17.14;100.00;100650.11;1768945;79;21431;-87
2021/10/22 09:37:12;;;;;;;31.70;24.40;;;;;;;17.13;100.00;100648.45;1757245;79;21149;-86
2021/10/22 09:39:40;;;;;;;32.17;24.98;;;;;;;17.17;100.00;100647.17;1758373;78;37451;-86
2021/10/22 09:42:15;;;;;;;27.80;23.07;;;;;;;17.22;100.00;100650.64;1796058;78;21069;-86
2021/10/22 09:44:45;;;;;;;33.18;23.65;;;;;;;17.27;100.00;100650.48;1774241;79;21523;-86
2021/10/22 09:47:20;;;;;;;29.12;21.68;;;;;;;17.32;100.00;100650.01;1802525;78;20951;-86
2021/10/22 09:49:54;;;;;;;35.10;23.87;;;;;;;17.41;100.00;100654.83;1706736;81;21101;-87
2021/10/22 09:52:26;;;;;;;28.23;22.70;;;;;;;17.46;100.00;100649.90;1728126;81;21081;-87
2021/10/22 09:55:11;;;;;;;24.90;20.95;;;;;;;17.43;100.00;100655.00;1708153;82;21161;-86
2021/10/22 09:57:46;;;;;;;30.15;22.70;;;;;;;17.35;100.00;100653.65;1708199;83;21003;-85
2021/10/22 10:00:21;;;;;;;28.00;22.58;;;;;;;17.28;100.00;100652.64;1695045;81;21022;-86
2021/10/22 10:02:48;;;;;;;27.77;21.97;;;;;;;17.26;100.00;100656.75;1734888;81;21010;-86
2021/10/22 10:05:18;;;;;;;30.15;22.17;;;;;;;17.30;100.00;100652.00;1737496;81;21058;-86
2021/10/22 10:07:46;;;;;;;30.27;23.70;;;;;;;17.39;100.00;100654.16;1708649;82;21163;-86
2021/10/22 10:10:14;;;;;;;30.02;21.90;;;;;;;17.49;100.00;100656.17;1736358;81;21093;-87
2021/10/22 10:12:45;;;;;;;25.20;20.45;;;;;;;17.58;100.00;100649.95;1717569;82;21014;-87
2021/10/22 10:15:13;;;;;;;24.65;20.50;;;;;;;17.65;100.00;100642.21;1737751;82;21019;-86
2021/10/22 10:17:46;;;;;;;28.80;21.07;;;;;;;17.72;100.00;100642.41;1706308;82;21663;-86
2021/10/22 10:20:18;;;;;;;29.20;21.17;;;;;;;17.80;100.00;100645.86;1768286;79;21808;-85
2021/10/22 10:22:48;;;;;;;26.60;21.75;;;;;;;17.85;100.00;100636.16;1738487;80;21914;-86
2021/10/22 10:25:19;;;;;;;27.77;21.55;;;;;;;17.92;100.00;100642.93;1786689;78;22005;-85
2021/10/22 10:27:54;;;;;;;27.67;21.97;;;;;;;18.00;100.00;100639.02;1784061;80;21081;-86
2021/10/22 10:30:35;;;;;;;28.67;20.70;;;;;;;18.08;100.00;100645.61;1786510;79;21606;-86
2021/10/22 10:33:07;;;;;;;27.87;21.53;;;;;;;18.12;100.00;100639.52;1764582;79;21816;-84
2021/10/22 10:35:38;;;;;;;25.40;20.95;;;;;;;18.12;100.00;100644.78;1759164;79;21539;-86
2021/10/22 10:38:08;;;;;;;28.00;21.05;;;;;;;18.09;100.00;100648.58;1771346;79;21078;-86
2021/10/22 10:40:36;;;;;;;28.83;21.40;;;;;;;18.04;100.00;100639.00;1791717;78;21003;-86
2021/10/22 10:43:20;;;;;;;25.00;20.80;;;;;;;18.03;100.00;100643.94;1783275;78;21514;-86
2021/10/22 10:45:51;;;;;;;24.05;20.15;;;;;;;18.05;100.00;100643.80;1782222;79;21536;-86
2021/10/22 10:48:22;;;;;;;28.07;22.70;;;;;;;18.11;100.00;100639.99;1763731;79;21054;-86
2021/10/22 10:51:04;;;;;;;27.87;22.20;;;;;;;18.17;100.00;100639.83;1770374;79;21019;-88
2021/10/22 10:53:50;;;;;;;37.98;22.27;;;;;;;18.21;100.00;100639.02;1776573;80;21142;-87
2021/10/22 10:56:36;;;;;;;32.98;21.35;;;;;;;18.24;100.00;100640.02;1745949;79;21026;-88
2021/10/22 10:59:03;;;;;;;24.37;19.85;;;;;;;18.25;100.00;100631.92;1763707;79;21839;-88
2021/10/22 11:01:37;;;;;;;27.73;19.60;;;;;;;18.32;100.00;100632.58;1770497;78;21180;-88
2021/10/22 11:04:07;;;;;;;30.70;19.25;;;;;;;18.37;100.00;100633.73;1740864;81;21591;-89
2021/10/22 11:06:52;;;;;;;21.70;17.77;;;;;;;18.43;100.00;100626.98;1741480;81;21380;-88
2021/10/22 11:09:43;;;;;;;22.62;18.10;;;;;;;18.48;100.00;100629.92;1739903;79;21045;-88
2021/10/22 11:12:14;;;;;;;20.68;18.15;;;;;;;18.54;100.00;100623.17;1738947;81;21145;-88
2021/10/22 11:14:45;;;;;;;21.85;17.62;;;;;;;18.58;100.00;100625.81;1722009;82;21082;-88
2021/10/22 11:17:16;;;;;;;26.97;19.50;;;;;;;18.58;100.00;100633.22;1743228;80;21078;-88
2021/10/22 11:19:45;;;;;;;;;;;;;;;18.56;100.00;100627.28;1769535;79;21011;-89